createdAt,value
2019-01-04T00:03:48.699Z,33.20
2019-01-04T00:08:52.778Z,35.30
2019-01-04T00:13:57.107Z,35.57
2019-01-04T00:19:01.208Z,32.40
2019-01-04T00:24:05.238Z,34.77
2019-01-04T00:29:09.865Z,33.50
2019-01-04T00:34:14.176Z,40.17
2019-01-04T00:39:18.254Z,37.20
2019-01-04T00:44:25.609Z,37.77
2019-01-04T00:49:29.978Z,40.73
2019-01-04T00:54:34.667Z,38.70
2019-01-04T01:00:07.832Z,41.00
2019-01-04T01:05:49.196Z,39.53
2019-01-04T01:11:23.651Z,42.27
2019-01-04T01:16:58.298Z,37.33
2019-01-04T01:22:34.982Z,39.57
2019-01-04T01:28:16.806Z,43.50
2019-01-04T01:33:34.836Z,40.70
2019-01-04T01:38:54.281Z,40.20
2019-01-04T01:44:30.093Z,35.67
2019-01-04T01:50:15.417Z,40.30
2019-01-04T01:55:19.776Z,44.47
2019-01-04T02:00:24.482Z,41.37
2019-01-04T02:05:28.849Z,41.47
2019-01-04T02:10:33.209Z,40.53
2019-01-04T02:15:37.793Z,38.07
2019-01-04T02:20:42.171Z,37.53
2019-01-04T02:25:46.524Z,38.27
2019-01-04T02:30:50.934Z,36.70
2019-01-04T02:35:55.005Z,38.93
2019-01-04T02:40:59.687Z,41.23
2019-01-04T02:46:04.047Z,39.23
2019-01-04T02:51:08.415Z,43.93
2019-01-04T02:56:12.484Z,38.97
2019-01-04T03:01:16.519Z,35.47
2019-01-04T03:06:21.162Z,39.83
2019-01-04T03:11:25.559Z,39.47
2019-01-04T03:16:30.242Z,42.37
2019-01-04T03:21:34.889Z,35.33
2019-01-04T03:26:39.285Z,34.43
2019-01-04T03:31:43.867Z,35.60
2019-01-04T03:36:48.235Z,35.70
2019-01-04T03:41:52.841Z,46.67
2019-01-04T03:46:57.749Z,51.50
2019-01-04T03:52:01.822Z,55.63
2019-01-04T03:57:06.473Z,48.70
2019-01-04T04:02:10.826Z,51.20
2019-01-04T04:07:15.180Z,51.80
2019-01-04T04:12:19.538Z,53.00
2019-01-04T04:17:23.577Z,51.33
2019-01-04T04:22:28.017Z,62.07
2019-01-04T04:27:32.050Z,56.48
2019-01-04T04:32:36.730Z,54.77
2019-01-04T04:37:41.375Z,53.23
2019-01-04T04:42:45.974Z,55.97
2019-01-04T04:47:50.037Z,54.57
2019-01-04T04:52:54.363Z,58.85
2019-01-04T04:57:59.018Z,58.97
2019-01-04T05:03:03.101Z,57.10
2019-01-04T05:08:07.409Z,56.25
2019-01-04T05:13:11.496Z,57.63
2019-01-04T05:18:16.163Z,59.93
2019-01-04T05:23:20.539Z,60.93
2019-01-04T05:28:24.616Z,57.57
2019-01-04T05:33:28.949Z,58.83
2019-01-04T05:38:33.367Z,54.27
2019-01-04T05:43:37.689Z,54.17
2019-01-04T05:48:42.051Z,59.77
2019-01-04T05:53:46.724Z,58.07
2019-01-04T05:58:50.825Z,62.43
2019-01-04T06:03:55.509Z,60.87
2019-01-04T06:08:59.928Z,58.10
2019-01-04T06:14:04.290Z,51.17
2019-01-04T06:19:08.356Z,54.63
2019-01-04T06:24:12.695Z,57.33
2019-01-04T06:29:16.732Z,54.43
2019-01-04T06:34:21.061Z,59.47
2019-01-04T06:39:25.151Z,55.73
2019-01-04T06:44:29.165Z,61.77
2019-01-04T06:49:33.491Z,59.90
2019-01-04T06:55:17.883Z,64.15
2019-01-04T07:00:22.532Z,64.37
2019-01-04T07:05:26.898Z,72.67
2019-01-04T07:10:30.974Z,77.10
2019-01-04T07:15:35.382Z,69.53
2019-01-04T07:20:39.585Z,61.58
2019-01-04T07:25:43.622Z,65.93
2019-01-04T07:30:48.237Z,61.83
2019-01-04T07:35:52.590Z,56.97
2019-01-04T07:40:57.043Z,52.55
2019-01-04T07:46:01.119Z,41.07
2019-01-04T07:51:05.151Z,39.83
2019-01-04T07:56:09.828Z,38.53
2019-01-04T08:01:13.888Z,35.10
2019-01-04T08:06:18.218Z,36.53
2019-01-04T08:11:22.583Z,36.03
2019-01-04T08:16:28.101Z,32.93
2019-01-04T08:21:32.168Z,37.63
2019-01-04T08:26:36.491Z,34.00
2019-01-04T08:31:40.858Z,33.33
2019-01-04T08:36:44.924Z,38.77
2019-01-04T08:41:49.240Z,38.67
2019-01-04T08:46:53.631Z,46.80
2019-01-04T08:51:57.992Z,44.13
2019-01-04T08:57:02.364Z,44.60
2019-01-04T09:02:07.007Z,43.33
2019-01-04T09:07:11.376Z,41.47
2019-01-04T09:12:15.745Z,39.63
2019-01-04T09:17:19.842Z,40.43
2019-01-04T09:22:24.455Z,34.20
2019-01-04T09:27:28.809Z,36.07
2019-01-04T09:32:33.170Z,34.47
2019-01-04T09:37:37.883Z,31.70
2019-01-04T09:42:42.334Z,32.37
2019-01-04T09:47:46.949Z,29.30
2019-01-04T09:52:51.040Z,30.33
2019-01-04T09:57:55.825Z,31.93
2019-01-04T10:03:00.159Z,28.42
2019-01-04T10:08:04.514Z,27.33
2019-01-04T10:13:08.876Z,27.93
2019-01-04T10:18:13.248Z,28.03
2019-01-04T10:23:17.601Z,27.00
2019-01-04T10:28:21.942Z,28.10
2019-01-04T10:33:26.632Z,27.80
2019-01-04T10:38:30.702Z,31.07
2019-01-04T10:43:35.267Z,27.37
2019-01-04T10:48:39.635Z,26.80
2019-01-04T10:53:43.735Z,34.07
2019-01-04T10:58:48.291Z,25.80
2019-01-04T11:03:52.362Z,22.60
2019-01-04T11:08:56.704Z,25.73
2019-01-04T11:14:01.116Z,27.67
2019-01-04T11:19:05.478Z,28.03
2019-01-04T11:24:15.514Z,28.10
2019-01-04T11:29:39.112Z,30.80
2019-01-04T11:35:12.346Z,31.03
2019-01-04T11:40:45.301Z,31.60
2019-01-04T11:46:00.462Z,32.20
2019-01-04T11:51:13.686Z,35.00
2019-01-04T11:56:18.027Z,34.35
2019-01-04T12:01:22.389Z,28.43
2019-01-04T12:06:27.238Z,22.87
2019-01-04T12:11:31.402Z,21.03
2019-01-04T12:16:35.728Z,17.67
2019-01-04T12:21:40.120Z,18.30
2019-01-04T12:26:44.171Z,20.40
2019-01-04T12:31:49.299Z,18.83
2019-01-04T12:36:53.400Z,20.10
2019-01-04T12:41:57.447Z,21.07
2019-01-04T12:47:01.487Z,24.10
2019-01-04T12:52:05.543Z,26.93
2019-01-04T12:57:09.581Z,27.53
2019-01-04T13:02:13.633Z,29.20
2019-01-04T13:07:17.656Z,24.83
2019-01-04T13:12:22.300Z,25.53
2019-01-04T13:17:28.810Z,25.67
2019-01-04T13:22:33.431Z,25.48
2019-01-04T13:27:37.804Z,26.10
2019-01-04T13:32:42.171Z,24.63
2019-01-04T13:37:46.524Z,22.67
2019-01-04T13:42:50.902Z,22.27
2019-01-04T13:47:54.989Z,28.40
2019-01-04T13:52:59.028Z,27.77
2019-01-04T13:58:03.059Z,28.40
2019-01-04T14:03:07.359Z,28.60
2019-01-04T14:08:12.048Z,35.07
2019-01-04T14:13:16.414Z,30.40
2019-01-04T14:18:20.781Z,33.83
2019-01-04T14:23:28.815Z,29.13
2019-01-04T14:28:31.759Z,29.17
2019-01-04T14:33:36.142Z,28.97
2019-01-04T14:38:40.317Z,32.35
2019-01-04T14:43:44.364Z,37.17
2019-01-04T14:48:48.398Z,46.10
2019-01-04T14:53:53.015Z,45.13
2019-01-04T14:58:57.418Z,37.63
2019-01-04T15:04:01.784Z,33.90
2019-01-04T15:09:07.034Z,36.63
2019-01-04T15:14:11.370Z,36.90
2019-01-04T15:19:15.744Z,37.53
2019-01-04T15:24:20.118Z,31.77
2019-01-04T15:29:24.192Z,27.80
2019-01-04T15:34:28.516Z,30.87
2019-01-04T15:39:32.596Z,31.37
2019-01-04T15:44:36.621Z,34.43
2019-01-04T15:49:40.952Z,34.87
2019-01-04T15:54:45.340Z,38.13
2019-01-04T15:59:50.663Z,40.53
2019-01-04T16:04:54.772Z,44.40
2019-01-04T16:09:58.857Z,44.07
2019-01-04T16:15:02.971Z,46.00
2019-01-04T16:20:10.867Z,49.95
2019-01-04T16:25:16.868Z,50.83
2019-01-04T16:30:20.918Z,48.00
2019-01-04T16:35:25.278Z,46.10
2019-01-04T16:40:29.664Z,48.90
2019-01-04T16:45:34.359Z,49.73
2019-01-04T16:50:38.438Z,55.03
2019-01-04T16:55:42.793Z,49.03
2019-01-04T17:00:47.189Z,48.53
2019-01-04T17:05:51.283Z,49.43
2019-01-04T17:10:55.434Z,49.73
2019-01-04T17:15:59.480Z,55.57
2019-01-04T17:21:03.851Z,57.67
2019-01-04T17:26:07.933Z,56.50
2019-01-04T17:31:11.984Z,52.00
2019-01-04T17:36:16.299Z,53.90
2019-01-04T17:41:20.715Z,56.07
2019-01-04T17:46:24.836Z,59.43
2019-01-04T17:51:29.255Z,55.57
2019-01-04T17:56:33.632Z,56.90
2019-01-04T18:01:38.083Z,53.07
2019-01-04T18:06:42.180Z,56.93
2019-01-04T18:11:47.418Z,51.00
2019-01-04T18:16:51.523Z,49.65
2019-01-04T18:21:56.152Z,50.77
2019-01-04T18:27:00.244Z,49.73
2019-01-04T18:32:09.068Z,55.30
2019-01-04T18:37:13.936Z,51.13
2019-01-04T18:42:18.060Z,52.53
2019-01-04T18:47:22.523Z,50.73
2019-01-04T18:52:26.907Z,53.75
2019-01-04T18:57:31.753Z,50.83
2019-01-04T19:02:36.354Z,50.70
2019-01-04T19:07:40.836Z,51.97
2019-01-04T19:12:50.076Z,57.23
2019-01-04T19:17:54.454Z,56.30
2019-01-04T19:22:58.909Z,57.50
2019-01-04T19:28:11.243Z,56.57
2019-01-04T19:33:21.371Z,56.27
2019-01-04T19:38:25.919Z,69.10
2019-01-04T19:43:30.330Z,63.80
2019-01-04T19:48:34.723Z,64.23
2019-01-04T19:53:38.871Z,66.87
2019-01-04T19:58:43.249Z,60.47
2019-01-04T20:03:47.770Z,64.57
2019-01-04T20:09:40.898Z,65.40
2019-01-04T20:15:18.359Z,67.67
2019-01-04T20:20:24.375Z,75.57
2019-01-04T20:25:46.601Z,72.87
2019-01-04T20:30:55.332Z,72.03
2019-01-04T20:36:04.347Z,67.97
2019-01-04T20:41:13.435Z,70.50
2019-01-04T20:46:22.102Z,73.47
2019-01-04T20:51:30.889Z,83.33
2019-01-04T20:56:54.970Z,77.30
2019-01-04T21:02:17.974Z,71.80
2019-01-04T21:07:24.004Z,77.97
2019-01-04T21:12:38.478Z,84.77
2019-01-04T21:17:49.871Z,84.22
2019-01-04T21:23:24.311Z,74.43
2019-01-04T21:28:32.953Z,74.93
2019-01-04T21:33:38.942Z,80.67
2019-01-04T21:38:59.617Z,75.30
2019-01-04T21:44:21.696Z,79.47
2019-01-04T21:49:37.055Z,80.87
2019-01-04T21:54:42.756Z,74.67
2019-01-04T21:59:54.390Z,72.35
2019-01-04T22:05:16.904Z,74.93
2019-01-04T22:10:38.738Z,76.13
2019-01-04T22:15:50.328Z,70.92
2019-01-04T22:21:12.499Z,68.83
2019-01-04T22:26:34.636Z,71.77
2019-01-04T22:31:55.537Z,73.30
2019-01-04T22:37:07.234Z,72.90
2019-01-04T22:42:29.974Z,71.77
2019-01-04T22:47:38.469Z,72.47
2019-01-04T22:53:00.172Z,81.97
2019-01-04T22:58:17.905Z,81.80
2019-01-04T23:03:23.867Z,77.97
2019-01-04T23:08:30.142Z,81.23
2019-01-04T23:13:41.397Z,82.87
2019-01-04T23:19:05.422Z,78.47
2019-01-04T23:24:17.303Z,80.23
2019-01-04T23:29:25.858Z,83.63
2019-01-04T23:34:47.944Z,78.77
2019-01-04T23:40:02.176Z,81.33
2019-01-04T23:45:08.639Z,79.70
2019-01-04T23:50:33.131Z,83.27
2019-01-04T23:55:54.434Z,80.30
